createdAt,value
2019-06-20T00:01:09.040Z,83.20
2019-06-20T00:03:40.125Z,83.30
2019-06-20T00:06:11.031Z,84.20
2019-06-20T00:08:41.809Z,83.80
2019-06-20T00:11:12.664Z,83.70
2019-06-20T00:13:44.581Z,84.00
2019-06-20T00:16:16.424Z,83.80
2019-06-20T00:18:47.251Z,83.80
2019-06-20T00:21:18.066Z,84.10
2019-06-20T00:23:49.254Z,84.90
2019-06-20T00:26:20.280Z,84.40
2019-06-20T00:28:50.944Z,84.80
2019-06-20T00:31:21.837Z,84.80
2019-06-20T00:33:52.608Z,85.10
2019-06-20T00:36:23.376Z,85.00
2019-06-20T00:38:54.263Z,84.90
2019-06-20T00:41:24.813Z,85.70
2019-06-20T00:43:55.364Z,85.20
2019-06-20T00:46:25.999Z,84.60
2019-06-20T00:48:56.713Z,85.00
2019-06-20T00:51:27.549Z,85.20
2019-06-20T00:53:58.689Z,85.00
2019-06-20T00:56:29.484Z,85.40
2019-06-20T00:59:00.269Z,85.40
2019-06-20T01:01:31.058Z,85.30
2019-06-20T01:04:01.572Z,85.40
2019-06-20T01:06:32.337Z,85.40
2019-06-20T01:09:03.476Z,85.30
2019-06-20T01:11:35.138Z,85.40
2019-06-20T01:14:06.369Z,85.30
2019-06-20T01:16:37.124Z,84.90
2019-06-20T01:19:08.068Z,85.70
2019-06-20T01:21:38.921Z,84.90
2019-06-20T01:24:09.757Z,84.90
2019-06-20T01:26:40.736Z,85.10
2019-06-20T01:29:22.885Z,85.50
2019-06-20T01:31:53.794Z,86.00
2019-06-20T01:34:24.583Z,86.40
2019-06-20T01:36:55.569Z,86.70
2019-06-20T01:39:26.157Z,86.90
2019-06-20T01:41:56.806Z,87.00
2019-06-20T01:44:27.422Z,86.70
2019-06-20T01:46:58.335Z,86.00
2019-06-20T01:49:28.874Z,86.00
2019-06-20T01:51:59.895Z,86.00
2019-06-20T01:54:30.856Z,86.10
2019-06-20T01:57:01.902Z,86.00
2019-06-20T01:59:32.622Z,86.10
2019-06-20T02:02:03.513Z,86.30
2019-06-20T02:04:34.372Z,86.10
2019-06-20T02:07:05.402Z,85.90
2019-06-20T02:09:36.177Z,85.70
2019-06-20T02:12:06.823Z,85.90
2019-06-20T02:14:37.460Z,86.00
2019-06-20T02:17:08.252Z,86.00
2019-06-20T02:19:38.846Z,85.80
2019-06-20T02:22:09.622Z,85.80
2019-06-20T02:24:40.601Z,85.70
2019-06-20T02:27:11.237Z,85.80
2019-06-20T02:29:41.967Z,85.80
2019-06-20T02:32:12.894Z,85.90
2019-06-20T02:34:43.733Z,85.80
2019-06-20T02:37:14.423Z,85.90
2019-06-20T02:39:45.200Z,86.00
2019-06-20T02:42:16.467Z,86.10
2019-06-20T02:44:47.181Z,86.20
2019-06-20T02:47:17.650Z,86.20
2019-06-20T02:49:48.777Z,86.20
2019-06-20T02:52:19.965Z,86.10
2019-06-20T02:54:50.906Z,85.90
2019-06-20T02:57:21.672Z,86.00
2019-06-20T02:59:52.341Z,86.10
2019-06-20T03:02:23.244Z,86.20
2019-06-20T03:04:53.981Z,86.50
2019-06-20T03:07:24.367Z,86.70
2019-06-20T03:09:54.952Z,86.70
2019-06-20T03:12:26.863Z,86.70
2019-06-20T03:14:57.551Z,86.90
2019-06-20T03:17:28.431Z,87.00
2019-06-20T03:19:59.477Z,87.10
2019-06-20T03:22:29.862Z,87.40
2019-06-20T03:25:00.529Z,87.40
2019-06-20T03:27:31.127Z,87.50
2019-06-20T03:30:01.978Z,87.50
2019-06-20T03:32:32.948Z,87.50
2019-06-20T03:35:03.842Z,87.50
2019-06-20T03:37:34.264Z,87.70
2019-06-20T03:40:05.767Z,87.80
2019-06-20T03:42:36.747Z,87.80
2019-06-20T03:45:07.697Z,87.80
2019-06-20T03:47:38.609Z,87.70
2019-06-20T03:50:10.144Z,87.70
2019-06-20T03:52:40.814Z,87.60
2019-06-20T03:55:12.717Z,87.50
2019-06-20T03:57:43.775Z,87.40
2019-06-20T04:00:17.004Z,87.50
2019-06-20T04:02:47.634Z,87.60
2019-06-20T04:05:18.564Z,87.60
2019-06-20T04:07:49.172Z,87.50
2019-06-20T04:10:21.046Z,87.60
2019-06-20T04:12:51.696Z,87.50
2019-06-20T04:15:22.560Z,87.40
2019-06-20T04:17:53.587Z,87.60
2019-06-20T04:20:24.527Z,87.50
2019-06-20T04:22:55.256Z,87.30
2019-06-20T04:25:26.264Z,87.40
2019-06-20T04:27:57.044Z,87.40
2019-06-20T04:30:27.739Z,87.40
2019-06-20T04:32:58.985Z,88.20
2019-06-20T04:35:29.572Z,87.50
2019-06-20T04:38:00.501Z,87.40
2019-06-20T04:40:31.043Z,87.70
2019-06-20T04:43:02.085Z,87.70
2019-06-20T04:45:47.750Z,87.80
2019-06-20T04:48:18.310Z,88.00
2019-06-20T04:50:48.952Z,88.40
2019-06-20T04:53:19.807Z,88.00
2019-06-20T04:55:50.471Z,88.20
2019-06-20T04:58:21.409Z,88.20
2019-06-20T05:00:52.685Z,88.20
2019-06-20T05:03:23.698Z,88.50
2019-06-20T05:05:54.519Z,88.60
2019-06-20T05:08:25.322Z,88.60
2019-06-20T05:10:56.408Z,88.80
2019-06-20T05:13:27.384Z,89.70
2019-06-20T05:15:58.224Z,89.20
2019-06-20T05:18:29.139Z,89.20
2019-06-20T05:20:59.877Z,89.40
2019-06-20T05:23:31.058Z,89.50
2019-06-20T05:26:02.034Z,89.70
2019-06-20T05:28:32.609Z,89.60
2019-06-20T05:31:03.266Z,89.90
2019-06-20T05:33:33.751Z,90.10
2019-06-20T05:36:04.588Z,90.10
2019-06-20T05:38:35.443Z,90.00
2019-06-20T05:41:06.366Z,90.00
2019-06-20T05:43:37.104Z,90.00
2019-06-20T05:46:10.711Z,89.90
2019-06-20T05:48:40.318Z,90.10
2019-06-20T05:51:11.118Z,90.00
2019-06-20T05:53:41.659Z,90.00
2019-06-20T05:56:12.293Z,90.20
2019-06-20T05:58:43.118Z,90.20
2019-06-20T06:01:14.113Z,90.20
2019-06-20T06:03:44.920Z,90.40
2019-06-20T06:06:15.795Z,90.50
2019-06-20T06:08:46.445Z,91.00
2019-06-20T06:11:17.222Z,91.20
2019-06-20T06:13:48.137Z,91.30
2019-06-20T06:16:26.909Z,91.40
2019-06-20T06:18:51.381Z,91.50
2019-06-20T06:21:22.417Z,91.30
2019-06-20T06:23:53.257Z,91.10
2019-06-20T06:26:24.105Z,91.00
2019-06-20T06:28:55.224Z,90.80
2019-06-20T06:31:26.088Z,90.80
2019-06-20T06:33:56.822Z,90.60
2019-06-20T06:36:27.634Z,90.50
2019-06-20T06:38:58.075Z,90.20
2019-06-20T06:41:28.607Z,89.50
2019-06-20T06:43:59.990Z,89.70
2019-06-20T06:46:43.754Z,87.50
2019-06-20T06:49:02.641Z,86.40
2019-06-20T06:51:33.270Z,88.50
2019-06-20T06:54:05.401Z,87.60
2019-06-20T06:56:35.885Z,86.40
2019-06-20T06:59:06.528Z,85.20
2019-06-20T07:01:37.051Z,85.10
2019-06-20T07:04:07.491Z,84.90
2019-06-20T07:06:38.352Z,83.40
2019-06-20T07:09:11.306Z,83.40
2019-06-20T07:11:42.096Z,84.70
2019-06-20T07:14:12.615Z,81.50
2019-06-20T07:16:50.910Z,77.20
2019-06-20T07:19:15.301Z,76.80
2019-06-20T07:21:45.885Z,76.10
2019-06-20T07:24:16.353Z,75.50
2019-06-20T07:26:46.788Z,75.10
2019-06-20T07:29:17.286Z,74.20
2019-06-20T07:31:47.724Z,72.40
2019-06-20T07:34:19.039Z,73.10
2019-06-20T07:36:49.778Z,72.00
2019-06-20T07:39:21.004Z,71.40
2019-06-20T07:41:51.883Z,71.20
2019-06-20T07:44:22.572Z,71.20
2019-06-20T07:46:53.312Z,70.90
2019-06-20T07:49:24.206Z,69.50
2019-06-20T07:51:55.041Z,68.20
2019-06-20T07:54:26.779Z,67.70
2019-06-20T07:56:57.735Z,67.70
2019-06-20T07:59:28.597Z,68.30
2019-06-20T08:01:59.770Z,67.10
2019-06-20T08:04:31.091Z,64.90
2019-06-20T08:07:02.280Z,65.60
2019-06-20T08:09:44.309Z,65.00
2019-06-20T08:12:05.664Z,66.20
2019-06-20T08:14:37.073Z,65.10
2019-06-20T08:17:08.057Z,64.30
2019-06-20T08:19:39.753Z,64.80
2019-06-20T08:22:12.881Z,63.60
2019-06-20T08:24:43.659Z,64.40
2019-06-20T08:27:15.046Z,64.30
2019-06-20T08:29:46.304Z,64.50
2019-06-20T08:32:17.213Z,64.20
2019-06-20T08:34:48.136Z,64.00
2019-06-20T08:37:19.125Z,63.70
2019-06-20T08:39:50.049Z,64.80
2019-06-20T08:42:20.963Z,65.20
2019-06-20T08:44:51.685Z,65.10
2019-06-20T08:47:22.950Z,64.60
2019-06-20T08:49:54.976Z,64.10
2019-06-20T08:52:26.836Z,64.10
2019-06-20T08:54:58.258Z,64.40
2019-06-20T08:57:30.003Z,64.80
2019-06-20T09:00:00.767Z,65.30
2019-06-20T09:02:31.764Z,65.10
2019-06-20T09:07:33.504Z,64.70
2019-06-20T09:10:04.465Z,64.60
2019-06-20T09:12:36.253Z,64.80
2019-06-20T09:15:08.173Z,64.20
2019-06-20T09:17:38.820Z,64.20
2019-06-20T09:20:11.386Z,63.60
2019-06-20T09:22:41.971Z,63.60
2019-06-20T09:25:12.842Z,63.20
2019-06-20T09:27:44.021Z,63.30
2019-06-20T09:30:16.251Z,63.30
2019-06-20T09:32:47.081Z,63.30
2019-06-20T09:35:18.178Z,62.90
2019-06-20T09:37:49.225Z,62.70
2019-06-20T09:40:19.957Z,62.40
2019-06-20T09:42:51.699Z,62.50
2019-06-20T09:45:23.224Z,61.40
2019-06-20T09:47:54.064Z,61.60
2019-06-20T09:50:27.295Z,61.50
2019-06-20T09:52:58.380Z,61.60
2019-06-20T09:55:29.455Z,61.70
2019-06-20T09:58:01.754Z,60.80
2019-06-20T10:00:33.521Z,61.20
2019-06-20T10:03:04.774Z,61.00
2019-06-20T10:05:36.137Z,60.30
2019-06-20T10:08:08.865Z,60.50
2019-06-20T10:10:39.775Z,60.50
2019-06-20T10:13:10.897Z,60.90
2019-06-20T10:15:42.009Z,60.90
2019-06-20T10:18:12.846Z,60.90
2019-06-20T10:20:44.376Z,61.20
2019-06-20T10:23:16.046Z,61.60
2019-06-20T10:25:47.806Z,61.50
2019-06-20T10:28:19.269Z,61.50
2019-06-20T10:30:51.090Z,61.80
2019-06-20T10:33:22.205Z,61.90
2019-06-20T10:35:53.087Z,62.10
2019-06-20T10:38:23.806Z,61.90
2019-06-20T10:40:54.408Z,62.00
2019-06-20T10:43:26.149Z,61.30
2019-06-20T10:45:56.838Z,61.00
2019-06-20T10:48:27.904Z,61.30
2019-06-20T10:51:17.626Z,61.80
2019-06-20T10:53:49.233Z,62.00
2019-06-20T10:56:20.042Z,61.90
2019-06-20T10:58:50.811Z,61.90
2019-06-20T11:01:21.632Z,61.90
2019-06-20T11:03:52.686Z,61.80
2019-06-20T11:06:24.634Z,61.50
2019-06-20T11:08:55.666Z,62.10
2019-06-20T11:11:26.259Z,62.20
2019-06-20T11:13:56.974Z,62.10
2019-06-20T11:16:28.178Z,61.90
2019-06-20T11:18:59.042Z,61.80
2019-06-20T11:21:29.947Z,61.20
2019-06-20T11:24:01.114Z,61.20
2019-06-20T11:26:32.172Z,61.40
2019-06-20T11:29:03.235Z,61.30
2019-06-20T11:31:34.114Z,61.60
2019-06-20T11:34:04.915Z,61.80
2019-06-20T11:36:36.965Z,61.80
2019-06-20T11:39:28.616Z,61.70
2019-06-20T11:41:59.512Z,61.40
2019-06-20T11:44:29.882Z,60.50
2019-06-20T11:47:00.403Z,59.90
2019-06-20T11:49:31.249Z,58.90
2019-06-20T11:52:02.422Z,58.90
2019-06-20T11:54:34.491Z,59.60
2019-06-20T11:57:05.363Z,59.00
2019-06-20T11:59:36.212Z,58.80
2019-06-20T12:02:07.017Z,59.00
2019-06-20T12:04:38.220Z,59.30
2019-06-20T12:07:10.506Z,59.20
2019-06-20T12:09:42.233Z,59.50
2019-06-20T12:12:13.265Z,59.90
2019-06-20T12:14:44.293Z,60.40
2019-06-20T12:17:15.394Z,60.00
2019-06-20T12:19:46.730Z,59.80
2019-06-20T12:22:17.258Z,60.30
2019-06-20T12:24:48.905Z,60.20
2019-06-20T12:27:19.694Z,60.00
2019-06-20T12:29:50.650Z,59.60
2019-06-20T12:32:21.939Z,59.10
2019-06-20T12:34:53.046Z,59.70
2019-06-20T12:37:23.853Z,58.80
2019-06-20T12:39:54.824Z,58.40
2019-06-20T12:42:25.670Z,57.80
2019-06-20T12:44:56.511Z,57.70
2019-06-20T12:47:27.182Z,57.40
2019-06-20T12:49:58.305Z,57.20
2019-06-20T12:52:29.846Z,57.40
2019-06-20T12:55:00.743Z,57.20
2019-06-20T12:57:31.728Z,57.50
2019-06-20T13:00:02.428Z,58.10
2019-06-20T13:02:33.989Z,57.90
2019-06-20T13:05:05.099Z,58.00
2019-06-20T13:07:38.549Z,56.70
2019-06-20T13:10:08.731Z,55.70
2019-06-20T13:12:40.826Z,57.60
2019-06-20T13:15:12.282Z,57.30
2019-06-20T13:17:44.840Z,57.30
2019-06-20T13:20:16.003Z,57.80
2019-06-20T13:22:46.854Z,57.30
2019-06-20T13:25:17.821Z,57.40
2019-06-20T13:27:50.430Z,57.30
2019-06-20T13:30:21.675Z,57.40
2019-06-20T13:32:52.898Z,57.20
2019-06-20T13:35:23.626Z,57.20
2019-06-20T13:37:55.043Z,57.40
2019-06-20T13:40:26.154Z,57.50
2019-06-20T13:42:56.927Z,57.80
2019-06-20T13:45:28.006Z,57.80
2019-06-20T13:47:58.904Z,57.80
2019-06-20T13:50:49.696Z,57.80
2019-06-20T13:53:20.964Z,57.50
2019-06-20T13:55:52.090Z,57.50
2019-06-20T13:58:22.905Z,57.30
2019-06-20T14:00:54.667Z,57.50
2019-06-20T14:03:26.561Z,57.70
2019-06-20T14:05:57.658Z,57.20
2019-06-20T14:08:28.678Z,56.90
2019-06-20T14:10:59.342Z,56.90
2019-06-20T14:13:30.380Z,56.80
2019-06-20T14:16:01.089Z,57.30
2019-06-20T14:18:32.140Z,56.70
2019-06-20T14:21:03.099Z,56.60
2019-06-20T14:23:33.785Z,56.70
2019-06-20T14:26:05.462Z,56.60
2019-06-20T14:28:36.461Z,56.70
2019-06-20T14:31:07.297Z,56.70
2019-06-20T14:33:38.224Z,56.50
2019-06-20T14:36:09.274Z,56.60
2019-06-20T14:38:40.314Z,56.70
2019-06-20T14:41:11.187Z,56.60
2019-06-20T14:43:42.779Z,57.30
2019-06-20T14:46:14.152Z,57.80
2019-06-20T14:48:47.276Z,58.10
2019-06-20T14:51:18.526Z,57.70
2019-06-20T14:53:49.499Z,57.60
2019-06-20T14:56:20.210Z,57.80
2019-06-20T14:58:51.575Z,57.50
2019-06-20T15:01:22.563Z,57.40
2019-06-20T15:03:53.820Z,57.60
2019-06-20T15:06:25.052Z,57.50
2019-06-20T15:09:03.487Z,57.80
2019-06-20T15:11:28.486Z,58.00
2019-06-20T15:13:59.146Z,58.10
2019-06-20T15:16:29.938Z,58.30
2019-06-20T15:19:00.774Z,58.50
2019-06-20T15:21:31.701Z,59.20
2019-06-20T15:24:02.660Z,60.00
2019-06-20T15:26:33.476Z,60.30
2019-06-20T15:29:06.215Z,61.40
2019-06-20T15:31:36.702Z,61.10
2019-06-20T15:34:07.978Z,60.90
2019-06-20T15:36:39.019Z,59.80
2019-06-20T15:39:09.961Z,59.00
2019-06-20T15:41:40.725Z,58.90
2019-06-20T15:44:11.502Z,57.90
2019-06-20T15:46:42.414Z,57.60
2019-06-20T15:49:16.287Z,57.50
2019-06-20T15:51:45.428Z,59.70
2019-06-20T15:54:16.294Z,66.90
2019-06-20T15:56:47.159Z,73.60
2019-06-20T15:59:17.912Z,75.30
2019-06-20T16:01:49.163Z,77.50
2019-06-20T16:04:20.089Z,80.40
2019-06-20T16:06:50.584Z,80.40
2019-06-20T16:09:21.445Z,81.00
2019-06-20T16:11:52.462Z,80.70
2019-06-20T16:14:23.271Z,81.30
2019-06-20T16:16:54.189Z,80.90
2019-06-20T16:19:24.934Z,80.80
2019-06-20T16:21:57.115Z,81.30
2019-06-20T16:24:27.926Z,81.50
2019-06-20T16:26:58.689Z,81.30
2019-06-20T16:29:31.432Z,80.40
2019-06-20T16:32:02.587Z,82.70
2019-06-20T16:34:33.644Z,81.70
2019-06-20T16:37:10.098Z,78.60
2019-06-20T16:39:36.922Z,80.50
2019-06-20T16:42:07.726Z,81.60
2019-06-20T16:44:38.540Z,81.10
2019-06-20T16:47:09.515Z,82.20
2019-06-20T16:49:40.405Z,82.10
2019-06-20T16:52:12.575Z,81.50
2019-06-20T16:54:43.220Z,80.10
2019-06-20T16:57:13.726Z,79.40
2019-06-20T16:59:44.702Z,81.00
2019-06-20T17:02:15.244Z,81.70
2019-06-20T17:04:45.687Z,81.20
2019-06-20T17:07:16.200Z,80.50
2019-06-20T17:09:46.849Z,80.30
2019-06-20T17:12:18.329Z,80.50
2019-06-20T17:14:49.067Z,80.10
2019-06-20T17:17:19.582Z,80.20
2019-06-20T17:19:50.031Z,81.00
2019-06-20T17:22:20.410Z,81.40
2019-06-20T17:24:50.924Z,80.40
2019-06-20T17:27:21.885Z,79.10
2019-06-20T17:29:52.436Z,78.70
2019-06-20T17:32:22.997Z,78.20
2019-06-20T17:34:53.678Z,79.10
2019-06-20T17:37:24.221Z,80.30
2019-06-20T17:39:54.781Z,79.10
2019-06-20T17:42:25.567Z,79.20
2019-06-20T17:44:56.279Z,78.90
2019-06-20T17:47:27.106Z,78.50
2019-06-20T17:49:58.000Z,77.70
2019-06-20T17:52:28.530Z,78.00
2019-06-20T17:54:59.096Z,80.00
2019-06-20T17:57:29.707Z,80.60
2019-06-20T18:00:00.276Z,81.00
2019-06-20T18:02:30.781Z,79.80
2019-06-20T18:05:01.601Z,80.50
2019-06-20T18:07:33.068Z,82.90
2019-06-20T18:10:03.921Z,83.20
2019-06-20T18:12:34.905Z,82.90
2019-06-20T18:15:06.259Z,81.90
2019-06-20T18:17:36.740Z,81.60
2019-06-20T18:20:07.970Z,81.00
2019-06-20T18:22:40.020Z,79.90
2019-06-20T18:25:13.235Z,77.70
2019-06-20T18:27:44.000Z,78.00
2019-06-20T18:30:15.491Z,77.80
2019-06-20T18:32:46.538Z,77.20
2019-06-20T18:35:17.863Z,77.30
2019-06-20T18:37:50.676Z,76.90
2019-06-20T18:40:22.566Z,77.20
2019-06-20T18:42:53.504Z,75.60
2019-06-20T18:45:24.476Z,75.00
2019-06-20T18:47:55.379Z,74.40
2019-06-20T18:50:26.373Z,74.30
2019-06-20T18:52:57.239Z,73.90
2019-06-20T18:55:28.326Z,74.50
2019-06-20T18:57:59.613Z,74.80
2019-06-20T19:00:34.857Z,74.40
2019-06-20T19:03:04.796Z,74.50
2019-06-20T19:05:35.852Z,74.90
2019-06-20T19:08:07.872Z,75.30
2019-06-20T19:10:39.441Z,75.20
2019-06-20T19:13:12.975Z,75.20
2019-06-20T19:15:43.355Z,75.30
2019-06-20T19:18:14.570Z,76.10
2019-06-20T19:20:45.356Z,75.80
2019-06-20T19:23:16.072Z,75.80
2019-06-20T19:25:47.186Z,76.60
2019-06-20T19:28:18.274Z,77.10
2019-06-20T19:30:51.030Z,76.90
2019-06-20T19:33:22.092Z,77.60
2019-06-20T19:35:52.911Z,78.10
2019-06-20T19:38:34.905Z,77.90
2019-06-20T19:41:05.847Z,78.50
2019-06-20T19:43:36.636Z,78.60
2019-06-20T19:46:07.748Z,79.10
2019-06-20T19:48:38.969Z,78.70
2019-06-20T19:51:10.202Z,78.80
2019-06-20T19:53:41.056Z,78.70
2019-06-20T19:56:11.712Z,78.20
2019-06-20T19:58:42.618Z,78.90
2019-06-20T20:01:13.709Z,79.10
2019-06-20T20:03:44.709Z,79.20
2019-06-20T20:06:20.754Z,79.30
2019-06-20T20:08:52.533Z,79.20
2019-06-20T20:11:23.649Z,78.10
2019-06-20T20:13:54.445Z,73.10
2019-06-20T20:16:25.626Z,71.60
2019-06-20T20:18:57.024Z,70.60
2019-06-20T20:21:29.285Z,71.10
2019-06-20T20:24:00.055Z,70.90
2019-06-20T20:26:31.174Z,71.10
2019-06-20T20:29:02.212Z,71.40
2019-06-20T20:31:33.010Z,73.70
2019-06-20T20:34:03.746Z,73.80
2019-06-20T20:36:34.907Z,75.70
2019-06-20T20:39:07.082Z,77.40
2019-06-20T20:41:38.417Z,77.80
2019-06-20T20:44:09.078Z,78.20
2019-06-20T20:46:40.025Z,78.50
2019-06-20T20:49:11.399Z,78.90
2019-06-20T20:51:42.422Z,79.20
2019-06-20T20:54:13.211Z,79.20
2019-06-20T20:56:44.124Z,79.20
2019-06-20T20:59:14.989Z,78.80
2019-06-20T21:01:46.124Z,79.20
2019-06-20T21:04:17.090Z,79.20
2019-06-20T21:06:47.872Z,78.60
2019-06-20T21:09:18.759Z,78.80
2019-06-20T21:11:49.482Z,78.90
2019-06-20T21:14:20.522Z,79.10
2019-06-20T21:16:51.157Z,78.90
2019-06-20T21:19:22.106Z,79.40
2019-06-20T21:21:52.739Z,80.00
2019-06-20T21:24:23.621Z,80.30
2019-06-20T21:26:54.657Z,80.50
2019-06-20T21:29:25.474Z,80.60
2019-06-20T21:31:56.262Z,81.00
2019-06-20T21:34:27.120Z,80.80
2019-06-20T21:36:57.631Z,80.50
2019-06-20T21:39:29.408Z,80.60
2019-06-20T21:42:00.204Z,80.60
2019-06-20T21:44:30.988Z,81.10
2019-06-20T21:47:01.973Z,80.40
2019-06-20T21:49:32.753Z,80.10
2019-06-20T21:52:04.681Z,80.70
2019-06-20T21:54:35.653Z,80.60
2019-06-20T21:57:06.624Z,80.20
2019-06-20T21:59:37.446Z,80.20
2019-06-20T22:02:08.639Z,80.20
2019-06-20T22:04:53.814Z,80.40
2019-06-20T22:07:12.162Z,80.90
2019-06-20T22:09:42.901Z,80.30
2019-06-20T22:12:13.706Z,80.50
2019-06-20T22:14:44.923Z,80.00
2019-06-20T22:17:15.532Z,80.50
2019-06-20T22:19:46.289Z,79.60
2019-06-20T22:22:17.333Z,79.70
2019-06-20T22:24:48.297Z,79.70
2019-06-20T22:27:30.402Z,79.10
2019-06-20T22:30:03.812Z,78.90
2019-06-20T22:32:33.941Z,79.30
2019-06-20T22:35:04.988Z,79.20
2019-06-20T22:37:35.845Z,79.10
2019-06-20T22:40:07.955Z,78.20
2019-06-20T22:42:39.034Z,79.20
2019-06-20T22:45:10.119Z,79.40
2019-06-20T22:47:40.931Z,78.80
2019-06-20T22:50:11.901Z,77.60
2019-06-20T22:52:42.751Z,77.40
2019-06-20T22:55:13.809Z,77.40
2019-06-20T22:57:44.541Z,79.00
2019-06-20T23:00:15.917Z,78.50
2019-06-20T23:02:46.784Z,78.30
2019-06-20T23:05:17.474Z,78.00
2019-06-20T23:07:48.696Z,77.10
2019-06-20T23:10:19.984Z,76.80
2019-06-20T23:12:51.121Z,76.60
2019-06-20T23:15:22.063Z,76.60
2019-06-20T23:17:52.774Z,76.30
2019-06-20T23:20:24.369Z,76.80
2019-06-20T23:22:55.190Z,77.20
2019-06-20T23:25:26.158Z,77.50
2019-06-20T23:27:57.198Z,77.90
2019-06-20T23:30:28.361Z,78.20
2019-06-20T23:32:59.148Z,78.60
2019-06-20T23:35:30.119Z,78.50
2019-06-20T23:38:00.951Z,78.60
2019-06-20T23:40:31.912Z,78.10
2019-06-20T23:43:02.709Z,78.10
2019-06-20T23:45:33.454Z,78.30
2019-06-20T23:48:04.403Z,78.90
2019-06-20T23:50:35.083Z,79.70
2019-06-20T23:53:12.064Z,78.90
2019-06-20T23:55:42.842Z,78.90
2019-06-20T23:58:13.370Z,79.10
